createdAt,value
2023-03-17T10:39:10.966Z,25.00
2023-03-17T10:43:11.428Z,25.00
2023-03-17T10:47:12.317Z,0.00
2023-03-17T10:51:11.085Z,0.00
2023-03-17T10:55:13.359Z,0.00
2023-03-17T10:59:11.178Z,0.00
2023-03-17T11:03:11.187Z,0.00
2023-03-17T11:07:11.120Z,0.00
2023-03-17T11:11:11.474Z,0.00
2023-03-17T11:15:11.525Z,0.00
2023-03-17T11:19:11.441Z,25.17
2023-03-17T11:23:11.444Z,52.34
2023-03-17T11:27:11.153Z,11.12
2023-03-17T11:31:11.166Z,38.67
2023-03-17T11:35:11.129Z,88.93
2023-03-17T11:39:11.074Z,0.00
2023-03-17T11:43:11.271Z,36.69
2023-03-17T11:47:11.014Z,85.59
2023-03-17T11:51:10.932Z,63.63
2023-03-17T11:55:11.083Z,65.50
2023-03-17T11:59:10.665Z,79.67
2023-03-17T12:03:11.479Z,61.30
2023-03-17T12:07:10.950Z,74.09
2023-03-17T12:11:11.146Z,223.06
2023-03-17T12:15:11.500Z,262.54
2023-03-17T12:19:11.991Z,231.00
2023-03-17T12:23:11.670Z,244.94
2023-03-17T12:27:11.995Z,241.95
2023-03-17T12:31:12.574Z,228.62
2023-03-17T12:35:12.209Z,225.95
2023-03-17T12:39:12.427Z,184.11
2023-03-17T12:43:12.578Z,215.55
2023-03-17T12:47:12.771Z,230.50
2023-03-17T12:51:12.959Z,223.49
2023-03-17T12:55:13.183Z,222.68
2023-03-17T12:59:13.312Z,218.93
2023-03-17T13:03:14.004Z,204.69
2023-03-17T13:07:13.974Z,159.29
2023-03-17T13:15:14.633Z,185.85
2023-03-17T13:19:14.309Z,191.70
2023-03-17T13:23:14.525Z,200.55
2023-03-17T13:27:14.681Z,198.55
2023-03-17T13:31:14.922Z,156.45
2023-03-17T13:35:15.227Z,198.19
2023-03-17T13:39:19.845Z,197.30
2023-03-17T13:43:16.226Z,195.12
2023-03-17T13:47:15.190Z,193.58
2023-03-17T13:51:15.522Z,196.87
2023-03-17T14:43:17.794Z,209.94
2023-03-17T15:15:17.546Z,193.28
2023-03-17T15:23:17.439Z,197.42
2023-03-17T15:27:17.606Z,205.05
2023-03-17T15:31:17.530Z,204.14
2023-03-17T15:35:17.510Z,213.87
2023-03-17T15:39:17.462Z,211.85
2023-03-17T15:43:17.468Z,205.36
2023-03-17T15:47:17.384Z,187.74
2023-03-17T15:51:17.367Z,202.70
2023-03-17T15:55:17.306Z,214.24
2023-03-17T15:59:17.292Z,225.97
2023-03-17T16:03:17.267Z,168.30
2023-03-17T16:07:17.191Z,146.13
2023-03-17T16:11:17.182Z,179.52
2023-03-17T16:15:23.074Z,143.13
2023-03-17T16:23:17.062Z,166.30
2023-03-17T16:27:17.151Z,147.87
2023-03-17T16:31:17.402Z,183.54
2023-03-17T16:35:17.406Z,180.25
2023-03-17T16:39:17.368Z,169.56
2023-03-17T16:43:25.104Z,149.65
2023-03-17T16:47:18.311Z,124.93
2023-03-17T16:51:17.293Z,129.07
2023-03-17T16:55:17.238Z,155.90
2023-03-17T16:59:17.252Z,145.70
2023-03-17T17:03:17.222Z,153.04
2023-03-17T17:07:17.134Z,166.26
2023-03-17T17:11:17.109Z,164.94
2023-03-17T17:15:17.105Z,170.31
2023-03-17T17:19:17.092Z,165.97
2023-03-17T17:23:17.080Z,152.94
2023-03-17T17:27:17.111Z,156.38
2023-03-17T17:31:17.185Z,159.18
2023-03-17T17:35:17.176Z,158.87
2023-03-17T17:39:17.177Z,167.01
2023-03-17T17:43:17.237Z,159.74
2023-03-17T17:47:17.230Z,166.18
2023-03-17T17:51:17.308Z,162.27
2023-03-17T17:55:17.327Z,177.57
2023-03-17T17:59:17.357Z,179.06
2023-03-17T18:03:17.381Z,179.85
2023-03-17T18:07:17.419Z,177.49
2023-03-17T18:11:17.459Z,174.37
2023-03-17T18:15:17.519Z,177.99
2023-03-17T18:19:17.547Z,175.55
2023-03-17T18:23:17.691Z,172.36
2023-03-17T18:27:17.654Z,177.84
2023-03-17T18:31:17.706Z,177.10
2023-03-17T18:35:17.745Z,170.40
2023-03-17T18:39:17.776Z,173.49
2023-03-17T18:43:17.834Z,167.20
2023-03-17T18:47:17.909Z,172.03
2023-03-17T18:51:17.953Z,157.21
2023-03-17T18:55:18.028Z,169.85
2023-03-17T18:59:18.139Z,169.60
2023-03-17T19:03:18.225Z,162.51
2023-03-17T19:07:18.228Z,163.34
2023-03-17T19:11:18.327Z,168.56
2023-03-17T19:15:18.307Z,160.28
2023-03-17T19:19:18.364Z,169.91
2023-03-17T19:23:18.474Z,176.01
2023-03-17T19:27:18.600Z,182.58
2023-03-17T19:31:18.671Z,180.78
2023-03-17T19:35:18.689Z,180.73
2023-03-17T19:39:18.771Z,172.60
2023-03-17T19:43:33.453Z,171.89
2023-03-17T19:47:19.798Z,166.63
2023-03-17T19:51:18.753Z,159.37
2023-03-17T19:55:18.728Z,156.75
2023-03-17T19:59:18.685Z,160.74
2023-03-17T20:03:18.660Z,166.26
2023-03-17T20:07:18.677Z,170.17
2023-03-17T20:11:18.689Z,159.59
2023-03-17T20:15:18.844Z,158.28
2023-03-17T20:19:18.849Z,142.68
2023-03-17T20:23:18.932Z,132.30
2023-03-17T20:27:19.001Z,133.60
2023-03-17T20:31:19.127Z,141.23
2023-03-17T20:35:19.172Z,134.26
2023-03-17T20:39:19.250Z,141.66
2023-03-17T20:43:19.335Z,127.73
2023-03-17T20:47:19.350Z,129.91
2023-03-17T22:15:20.862Z,104.98
2023-03-17T22:19:21.444Z,133.35
2023-03-17T22:23:20.990Z,171.72
2023-03-17T22:27:21.022Z,168.72
2023-03-17T22:31:21.089Z,169.47
2023-03-17T22:35:21.139Z,162.81
2023-03-17T22:39:21.180Z,129.96
2023-03-17T22:43:21.250Z,121.59
2023-03-17T22:47:21.289Z,118.62
